Time;durP1;ratioP1;P1;durP2;ratioP2;P2;SDS_P1;SDS_P2;PMS_P1;PMS_P2;Temp;Humidity;BMP_temperature;BMP_pressure;BME280_temperature;BME280_humidity;BME280_pressure;Samples;Min_cycle;Max_cycle;Signal;HPM_P1;HPM_P2
2022/08/27 00:00:44;;;;;;;;;4.50;4.25;;;;;23.21;48.56;101080.66;2105985;27;47791;-54
2022/08/27 00:01:45;;;;;;;;;3.40;3.40;;;;;23.20;48.58;101076.22;2095841;28;47507;-55
2022/08/27 00:02:46;;;;;;;;;3.00;3.00;;;;;23.20;47.93;101081.66;2096977;28;47560;-54
2022/08/27 00:03:46;;;;;;;;;3.00;2.80;;;;;23.20;48.74;101071.69;2096515;28;47570;-51
2022/08/27 00:04:47;;;;;;;;;7.00;7.00;;;;;23.19;48.28;101069.09;2095877;28;48206;-54
2022/08/27 00:05:47;;;;;;;;;5.00;5.00;;;;;23.19;48.12;101074.50;2106436;27;47696;-54
2022/08/27 00:06:48;;;;;;;;;7.00;7.00;;;;;23.19;48.74;101078.06;2104611;28;47820;-53
2022/08/27 00:07:48;;;;;;;;;6.00;5.25;;;;;23.19;48.45;101072.66;2096851;28;47114;-55
2022/08/27 00:08:49;;;;;;;;;3.00;3.00;;;;;23.21;48.88;101077.97;2096793;28;46394;-54
2022/08/27 00:09:49;;;;;;;;;4.00;4.00;;;;;23.20;48.52;101078.94;2095912;28;47503;-54
2022/08/27 00:10:50;;;;;;;;;4.25;4.25;;;;;23.20;48.71;101070.81;2096730;28;48190;-54
2022/08/27 00:11:50;;;;;;;;;3.75;3.75;;;;;23.20;48.66;101070.81;2097069;28;47367;-52
2022/08/27 00:12:52;;;;;;;;;3.50;3.50;;;;;23.19;48.14;101078.06;2103834;28;47290;-52
2022/08/27 00:13:54;;;;;;;;;5.00;3.40;;;;;23.19;48.65;101074.50;2100992;28;47753;-53
2022/08/27 00:14:54;;;;;;;;;6.00;4.80;;;;;23.22;48.58;101076.13;2095793;28;47782;-53
2022/08/27 00:15:55;;;;;;;;;3.00;3.00;;;;;23.20;48.66;101073.53;2111300;27;47367;-50
2022/08/27 00:16:56;;;;;;;;;2.67;2.67;;;;;23.21;48.35;101075.25;2110072;27;47917;-53
2022/08/27 00:17:56;;;;;;;;;6.20;4.40;;;;;23.21;48.58;101077.97;2104552;28;47463;-52
2022/08/27 00:18:57;;;;;;;;;6.25;4.75;;;;;23.20;48.88;101068.09;2105987;27;47507;-52
2022/08/27 00:19:57;;;;;;;;;3.00;3.00;;;;;23.20;48.64;101082.50;2096892;28;47136;-50
2022/08/27 00:20:58;;;;;;;;;3.67;3.67;;;;;23.20;48.72;101076.22;2095872;28;48271;-53
2022/08/27 00:21:58;;;;;;;;;3.00;3.00;;;;;23.20;48.31;101074.38;2096908;28;47305;-52
2022/08/27 00:22:59;;;;;;;;;6.00;5.00;;;;;23.19;48.42;101078.06;2095752;28;47265;-50
2022/08/27 00:24:00;;;;;;;;;3.00;3.00;;;;;23.18;48.44;101073.63;2079200;28;47499;-50
2022/08/27 00:25:01;;;;;;;;;3.00;3.00;;;;;23.16;48.52;101072.88;2081875;27;47473;-53
2022/08/27 00:26:03;;;;;;;;;3.75;3.00;;;;;23.14;48.78;101074.81;2113259;27;47815;-51
2022/08/27 00:27:03;;;;;;;;;3.80;3.80;;;;;23.14;48.77;101074.81;2114133;27;47226;-51
2022/08/27 00:28:05;;;;;;;;;4.00;4.00;;;;;23.17;48.66;101081.88;2112371;27;47297;-51
2022/08/27 00:29:07;;;;;;;;;4.00;4.00;;;;;23.17;48.47;101071.91;2104886;28;47507;-52
2022/08/27 00:30:11;;;;;;;;;3.20;2.20;;;;;23.18;48.76;101072.75;2105317;27;48085;-53
2022/08/27 00:31:13;;;;;;;;;4.00;3.80;;;;;23.18;48.72;101076.34;2101283;27;47939;-53
2022/08/27 00:32:14;;;;;;;;;3.00;3.00;;;;;23.18;48.75;101075.47;2095795;28;47791;-54
2022/08/27 00:33:14;;;;;;;;;4.00;3.75;;;;;23.17;49.17;101073.75;2097046;28;47588;-54
2022/08/27 00:34:15;;;;;;;;;4.50;4.50;;;;;23.17;48.89;101071.91;2104746;28;47412;-53
2022/08/27 00:35:16;;;;;;;;;3.50;3.50;;;;;23.19;48.87;101074.50;2105560;27;47432;-54
2022/08/27 00:36:16;;;;;;;;;4.00;4.00;;;;;23.20;48.67;101074.38;2105270;27;47731;-52
2022/08/27 00:37:18;;;;;;;;;4.25;4.25;;;;;23.20;48.38;101079.81;2086557;28;48133;-51
2022/08/27 00:38:20;;;;;;;;;4.00;4.00;;;;;23.19;48.85;101072.66;2087507;28;47384;-55
2022/08/27 00:39:20;;;;;;;;;4.20;4.20;;;;;23.18;48.73;101084.47;2105745;27;47784;-51
2022/08/27 00:40:22;;;;;;;;;3.50;3.50;;;;;23.17;49.02;101073.75;2095353;28;47682;-56
2022/08/27 00:41:22;;;;;;;;;3.80;3.80;;;;;23.17;48.87;101081.88;2096739;28;48052;-52
2022/08/27 00:42:23;;;;;;;;;6.00;4.75;;;;;23.15;48.82;101078.41;2078182;28;47430;-50
2022/08/27 00:43:26;;;;;;;;;5.00;5.00;;;;;23.14;48.81;101077.53;2079777;28;47935;-53
2022/08/27 00:44:27;;;;;;;;;4.80;4.00;;;;;23.13;48.58;101077.63;2105105;27;47545;-50
2022/08/27 00:45:27;;;;;;;;;5.75;5.75;;;;;23.13;49.22;101080.34;2104716;28;47905;-52
2022/08/27 00:46:38;;;;;;;;;6.00;6.00;;;;;23.12;49.07;101079.47;2105493;27;47651;-52
2022/08/27 00:47:48;;;;;;;;;3.40;3.40;;;;;23.11;48.56;101083.13;2107863;27;47734;-53
2022/08/27 00:48:51;;;;;;;;;5.20;5.00;;;;;23.09;48.82;101074.25;2113066;27;47454;-51
2022/08/27 00:49:57;;;;;;;;;5.00;5.00;;;;;23.10;48.74;101077.81;2105451;27;47915;-52
2022/08/27 00:50:57;;;;;;;;;4.00;4.00;;;;;23.10;49.06;101081.41;2108377;27;47628;-51
2022/08/27 00:52:07;;;;;;;;;4.75;4.75;;;;;23.11;49.06;101079.56;2113283;27;48067;-54
2022/08/27 00:53:12;;;;;;;;;5.60;5.40;;;;;23.12;48.81;101076.78;2111344;27;47902;-54
2022/08/27 00:54:12;;;;;;;;;5.00;5.00;;;;;23.13;48.99;101080.34;2106409;27;47557;-51
2022/08/27 00:55:19;;;;;;;;;4.25;4.25;;;;;23.13;49.12;101078.50;2106348;28;47232;-52
2022/08/27 00:56:23;;;;;;;;;5.80;5.80;;;;;23.14;48.99;101074.81;2107237;27;47693;-52
2022/08/27 00:57:25;;;;;;;;;5.00;5.00;;;;;23.14;48.93;101077.53;2107208;27;47428;-52
2022/08/27 00:58:30;;;;;;;;;5.80;5.80;;;;;23.13;48.83;101073.09;2106461;28;47566;-54
2022/08/27 00:59:31;;;;;;;;;6.40;6.40;;;;;23.13;48.81;101070.38;2111478;27;47543;-54
2022/08/27 01:00:32;;;;;;;;;4.80;4.80;;;;;23.12;49.30;101074.06;2114441;27;47786;-53
2022/08/27 01:01:34;;;;;;;;;6.25;5.25;;;;;23.09;48.98;101066.13;2114796;27;47227;-51
2022/08/27 01:02:34;;;;;;;;;2.80;1.40;;;;;23.09;48.95;101071.53;2112126;27;47392;-51
2022/08/27 01:03:34;;;;;;;;;5.75;5.75;;;;;23.08;48.97;101069.81;2106339;28;47660;-53
2022/08/27 01:04:37;;;;;;;;;6.25;5.75;;;;;23.07;48.78;101073.50;2106918;27;47703;-52
2022/08/27 01:05:38;;;;;;;;;7.00;6.40;;;;;23.06;49.00;101076.31;2106827;27;47841;-53
2022/08/27 01:06:39;;;;;;;;;5.40;5.40;;;;;23.05;48.76;101071.88;2106043;28;47588;-52
2022/08/27 01:07:43;;;;;;;;;6.75;6.00;;;;;23.04;49.28;101081.84;2098011;28;47404;-53
2022/08/27 01:08:50;;;;;;;;;5.40;5.40;;;;;23.04;49.19;101081.84;2098626;27;47611;-52
2022/08/27 01:09:51;;;;;;;;;6.20;6.00;;;;;23.03;49.10;101079.22;2096789;28;47433;-51
2022/08/27 01:10:55;;;;;;;;;7.40;7.40;;;;;23.03;49.20;101079.22;2097867;28;47969;-53
2022/08/27 01:11:57;;;;;;;;;8.60;8.60;;;;;23.02;49.20;101072.09;2105733;27;46663;-54
2022/08/27 01:12:57;;;;;;;;;9.20;9.20;;;;;23.02;49.17;101081.06;2087871;28;45922;-51
2022/08/27 01:13:58;;;;;;;;;6.50;6.50;;;;;23.04;49.43;101075.56;2087543;28;47387;-53
2022/08/27 01:15:01;;;;;;;;;8.60;8.60;;;;;23.07;49.44;101078.03;2105789;28;47332;-53
2022/08/27 01:16:04;;;;;;;;;13.80;12.00;;;;;23.09;49.18;101076.09;2104220;28;47223;-50
2022/08/27 01:17:06;;;;;;;;;8.60;8.60;;;;;;;;2097551;28;48114;-53
2022/08/27 01:18:08;;;;;;;;;11.40;11.40;;;;;23.07;49.23;101078.91;2088310;28;47230;-51
2022/08/27 01:19:19;;;;;;;;;11.60;11.60;;;;;23.07;48.93;101076.19;2088795;28;47837;-52
2022/08/27 01:20:24;;;;;;;;;12.00;11.00;;;;;23.07;49.31;101078.91;2093395;28;48190;-54
2022/08/27 01:21:40;;;;;;;;;13.60;10.60;;;;;23.07;49.10;101078.91;2114388;27;47700;-54
2022/08/27 01:22:58;;;;;;;;;16.20;15.20;;;;;23.07;48.97;101081.63;2094758;28;47477;-52
2022/08/27 01:24:12;;;;;;;;;13.40;13.40;;;;;23.07;49.18;101087.03;2090890;28;47602;-53
2022/08/27 01:25:16;;;;;;;;;13.40;13.40;;;;;23.07;49.46;101076.19;2100147;28;47939;-55
2022/08/27 01:26:16;;;;;;;;;13.60;13.20;;;;;;;;2105802;28;47765;-55
2022/08/27 01:27:21;;;;;;;;;16.75;15.50;;;;;23.07;49.13;101078.91;2106825;27;47919;-53
2022/08/27 01:28:21;;;;;;;;;16.20;16.20;;;;;23.06;49.09;101085.28;2107151;27;47758;-55
2022/08/27 01:29:22;;;;;;;;;15.25;14.50;;;;;23.05;48.97;101080.84;2105770;28;47369;-55
2022/08/27 01:30:22;;;;;;;;;12.50;12.50;;;;;23.03;49.17;101080.09;2106634;27;47981;-51
2022/08/27 01:31:23;;;;;;;;;17.50;16.50;;;;;23.01;48.99;101068.50;2101513;27;47386;-53
2022/08/27 01:32:28;;;;;;;;;17.50;16.75;;;;;23.00;49.50;101072.19;2096569;28;45582;-50
2022/08/27 01:33:29;;;;;;;;;19.60;16.20;;;;;22.99;49.17;101073.13;2098555;28;47675;-52
2022/08/27 01:34:29;;;;;;;;;14.00;14.00;;;;;22.97;49.28;101071.50;2105874;27;47597;-52
2022/08/27 01:35:29;;;;;;;;;15.75;15.75;;;;;22.97;49.38;101071.50;2104825;28;48144;-51
2022/08/27 01:36:30;;;;;;;;;17.50;14.50;;;;;22.95;49.51;101074.31;2106608;27;47421;-53
2022/08/27 01:37:32;;;;;;;;;14.40;14.00;;;;;22.96;49.44;101067.06;2105637;28;48000;-52
2022/08/27 01:38:33;;;;;;;;;15.20;14.60;;;;;22.96;49.48;101075.19;2112709;27;47834;-51
2022/08/27 01:39:35;;;;;;;;;17.25;15.75;;;;;22.95;49.38;101076.16;2104453;28;47711;-52
2022/08/27 01:40:37;;;;;;;;;13.60;13.60;;;;;22.94;49.57;101074.44;2096780;28;47471;-52
2022/08/27 01:41:37;;;;;;;;;13.80;13.80;;;;;22.92;49.39;101069.13;2106991;27;47548;-52
2022/08/27 01:42:45;;;;;;;;;16.50;16.00;;;;;22.92;49.46;101068.25;2105818;27;47828;-51
2022/08/27 01:43:45;;;;;;;;;15.80;15.60;;;;;22.90;49.59;101061.13;2097500;28;47564;-52
2022/08/27 01:44:55;;;;;;;;;14.25;12.50;;;;;22.91;49.85;101067.41;2103182;27;47509;-53
2022/08/27 01:45:55;;;;;;;;;16.00;16.00;;;;;22.90;49.63;101063.81;2107036;27;47608;-51
2022/08/27 01:46:56;;;;;;;;;9.25;9.25;;;;;22.90;49.50;101071.94;2096627;28;47086;-53
2022/08/27 01:47:58;;;;;;;;;16.25;15.25;;;;;22.89;49.74;101062.09;2097734;28;47738;-53
2022/08/27 01:48:58;;;;;;;;;12.80;12.40;;;;;22.89;49.53;101066.63;2105928;28;47481;-53
2022/08/27 01:50:00;;;;;;;;;13.50;12.50;;;;;22.89;49.36;101063.94;2097601;28;47688;-49
2022/08/27 01:51:00;;;;;;;;;11.60;11.60;;;;;22.87;49.54;101069.44;2097910;28;47599;-51
2022/08/27 01:52:00;;;;;;;;;14.00;12.25;;;;;22.88;49.51;101059.50;2096974;28;47013;-52
2022/08/27 01:53:04;;;;;;;;;12.25;11.25;;;;;22.86;49.62;101056.88;2098873;28;47562;-52
2022/08/27 01:54:05;;;;;;;;;10.00;10.00;;;;;22.86;49.80;101061.41;2106129;27;47786;-51
2022/08/27 01:55:08;;;;;;;;;12.50;11.50;;;;;22.84;49.67;101064.22;2105495;28;47136;-52
2022/08/27 01:56:10;;;;;;;;;12.00;10.80;;;;;22.83;49.49;101064.31;2107348;27;47807;-52
2022/08/27 01:57:11;;;;;;;;;11.60;11.60;;;;;22.85;49.89;101055.13;2105552;28;47849;-54
2022/08/27 01:58:12;;;;;;;;;10.00;9.80;;;;;22.86;49.86;101059.56;2106992;27;47444;-51
2022/08/27 01:59:12;;;;;;;;;10.00;10.00;;;;;22.87;49.33;101055.06;2107313;27;47639;-51
2022/08/27 02:00:18;;;;;;;;;9.50;9.50;;;;;22.86;49.75;101058.69;2105868;28;47731;-49
2022/08/27 02:01:18;;;;;;;;;9.00;8.00;;;;;22.84;49.69;101057.94;2107225;27;48004;-51
2022/08/27 02:02:19;;;;;;;;;6.50;6.50;;;;;22.85;49.95;101065.09;2107279;27;47510;-53
2022/08/27 02:03:20;;;;;;;;;9.00;7.80;;;;;22.83;49.67;101053.50;2105562;28;47712;-53
2022/08/27 02:04:21;;;;;;;;;8.50;7.75;;;;;22.83;49.61;101059.78;2106871;27;47544;-53
2022/08/27 02:05:22;;;;;;;;;7.40;6.80;;;;;22.82;49.72;101054.44;2106099;27;48046;-50
2022/08/27 02:06:22;;;;;;;;;6.25;6.25;;;;;22.80;49.61;101065.38;2106654;27;47538;-53
2022/08/27 02:07:22;;;;;;;;;7.00;7.00;;;;;22.81;49.67;101071.66;2106732;27;47745;-50
2022/08/27 02:08:23;;;;;;;;;4.25;4.25;;;;;22.79;49.50;101060.06;2105714;28;47004;-54
2022/08/27 02:09:24;;;;;;;;;6.50;6.50;;;;;22.76;49.73;101063.84;2107033;27;47470;-53
2022/08/27 02:10:38;;;;;;;;;7.25;7.25;;;;;22.74;49.77;101070.31;2088449;28;47369;-52
2022/08/27 02:11:38;;;;;;;;;8.80;7.60;;;;;22.71;49.66;101067.81;2089510;28;47339;-52
2022/08/27 02:12:38;;;;;;;;;8.00;8.00;;;;;22.70;50.01;101063.38;2089137;28;47632;-52
2022/08/27 02:13:39;;;;;;;;;7.50;7.50;;;;;22.68;49.99;101062.63;2098678;28;47521;-49
2022/08/27 02:14:39;;;;;;;;;9.25;8.25;;;;;22.68;49.77;101057.22;2114172;27;47346;-51
2022/08/27 02:15:41;;;;;;;;;7.75;7.75;;;;;22.68;49.80;101070.75;2103979;28;47342;-52
2022/08/27 02:16:42;;;;;;;;;8.20;7.60;;;;;22.66;49.90;101068.13;2096362;28;47484;-54
2022/08/27 02:17:42;;;;;;;;;6.75;6.25;;;;;22.64;50.00;101061.97;2088152;28;47108;-53
2022/08/27 02:18:43;;;;;;;;;4.00;4.00;;;;;22.64;50.29;101070.09;2098111;28;47032;-53
2022/08/27 02:19:44;;;;;;;;;7.00;7.00;;;;;22.64;50.21;101061.09;2105884;28;47000;-51
2022/08/27 02:20:46;;;;;;;;;5.00;5.00;;;;;22.64;50.42;101055.69;2106504;27;47580;-54
2022/08/27 02:21:48;;;;;;;;;4.50;4.50;;;;;22.63;50.26;101060.25;2106559;27;47874;-52
2022/08/27 02:22:48;;;;;;;;;5.20;5.20;;;;;22.64;50.18;101064.69;2105583;28;47404;-53
2022/08/27 02:23:49;;;;;;;;;4.00;4.00;;;;;22.64;50.48;101061.97;2106711;27;47672;-51
2022/08/27 02:24:50;;;;;;;;;5.00;5.00;;;;;22.63;50.15;101053.97;2078752;28;47151;-51
2022/08/27 02:25:50;;;;;;;;;6.00;5.00;;;;;22.63;50.54;101059.38;2079318;28;47685;-55
2022/08/27 02:26:50;;;;;;;;;5.00;5.00;;;;;22.64;50.05;101063.81;2101098;28;47845;-51
2022/08/27 02:27:51;;;;;;;;;5.00;5.00;;;;;22.62;50.22;101055.78;2096321;28;47413;-49
2022/08/27 02:28:51;;;;;;;;;6.75;5.00;;;;;22.64;50.04;101061.09;2098287;28;48141;-51
2022/08/27 02:29:52;;;;;;;;;5.00;4.25;;;;;22.63;50.46;101062.06;2106432;27;47362;-52
2022/08/27 02:30:52;;;;;;;;;6.00;4.75;;;;;22.62;50.43;101063.91;2103074;28;46618;-50
2022/08/27 02:31:53;;;;;;;;;3.75;3.75;;;;;22.63;50.21;101056.66;2104565;27;47030;-53
2022/08/27 02:32:53;;;;;;;;;5.50;5.00;;;;;22.63;50.59;101062.06;2105734;28;45776;-52
2022/08/27 02:33:54;;;;;;;;;5.50;5.50;;;;;22.65;50.27;101068.25;2087184;28;47763;-49
2022/08/27 02:34:55;;;;;;;;;3.50;3.50;;;;;22.63;50.29;101067.47;2087603;28;47399;-49
2022/08/27 02:35:56;;;;;;;;;4.40;4.20;;;;;22.64;50.57;101063.81;2105628;28;47509;-51
2022/08/27 02:36:56;;;;;;;;;4.00;4.00;;;;;22.65;50.38;101069.13;2113481;27;48005;-51
2022/08/27 02:37:57;;;;;;;;;2.00;2.00;;;;;22.64;50.50;101071.94;2112252;27;47286;-52
2022/08/27 02:38:57;;;;;;;;;5.40;5.40;;;;;22.64;50.28;101061.09;2105324;28;47491;-50
2022/08/27 02:39:58;;;;;;;;;4.00;4.00;;;;;22.62;50.01;101061.22;2088144;28;47364;-48
2022/08/27 02:40:58;;;;;;;;;4.25;4.25;;;;;22.60;50.49;101058.56;2088312;28;47382;-54
2022/08/27 02:41:59;;;;;;;;;4.25;4.00;;;;;22.58;50.23;101056.94;2096696;28;47684;-52
2022/08/27 02:42:59;;;;;;;;;4.00;3.00;;;;;22.57;50.43;101063.31;2106071;27;47518;-55
2022/08/27 02:44:00;;;;;;;;;5.50;5.00;;;;;22.55;50.19;101058.03;2106073;28;45423;-53
2022/08/27 02:45:00;;;;;;;;;4.25;3.50;;;;;22.55;50.42;101058.03;2087913;28;48101;-51
2022/08/27 02:46:02;;;;;;;;;2.75;2.50;;;;;22.55;50.33;101054.47;2088394;28;47502;-50
2022/08/27 02:47:03;;;;;;;;;4.60;4.60;;;;;22.54;50.69;101059.00;2105644;28;47272;-50
2022/08/27 02:48:04;;;;;;;;;4.40;4.40;;;;;22.54;50.48;101056.28;2110149;27;47454;-53
2022/08/27 02:49:06;;;;;;;;;3.00;3.00;;;;;22.55;50.62;101057.16;2113756;27;47540;-54
2022/08/27 02:50:07;;;;;;;;;4.20;3.80;;;;;22.54;50.49;101053.59;2105167;28;47789;-52
2022/08/27 02:51:08;;;;;;;;;4.40;4.40;;;;;22.53;50.49;101057.25;2097139;28;47371;-52
2022/08/27 02:52:09;;;;;;;;;7.25;4.75;;;;;22.55;50.38;101051.75;2096069;28;47635;-51
2022/08/27 02:53:09;;;;;;;;;5.00;5.00;;;;;22.54;50.45;101056.28;2097038;28;46033;-54
2022/08/27 02:54:10;;;;;;;;;5.00;4.00;;;;;22.54;50.53;101053.59;2096709;28;47444;-52
2022/08/27 02:55:11;;;;;;;;;4.25;3.75;;;;;22.54;50.48;101056.28;2105244;28;47872;-52
2022/08/27 02:56:12;;;;;;;;;3.40;2.40;;;;;22.52;50.54;101060.06;2106937;27;47482;-53
2022/08/27 02:57:12;;;;;;;;;3.50;3.50;;;;;22.49;50.57;101049.47;2105301;28;47307;-53
2022/08/27 02:58:15;;;;;;;;;3.75;3.75;;;;;22.47;50.54;101051.38;2097847;27;47683;-49
2022/08/27 02:59:16;;;;;;;;;2.80;2.80;;;;;22.45;50.67;101050.63;2098076;28;47941;-53
2022/08/27 03:00:18;;;;;;;;;3.75;3.00;;;;;22.42;50.88;101048.13;2105116;28;47720;-51
2022/08/27 03:01:19;;;;;;;;;3.40;2.20;;;;;22.41;50.79;101049.09;2106918;27;47615;-50
2022/08/27 03:02:20;;;;;;;;;3.00;3.00;;;;;22.39;51.08;101049.19;2097163;28;47312;-51
2022/08/27 03:03:20;;;;;;;;;3.40;3.40;;;;;22.37;50.49;101053.84;2096349;28;47545;-53
2022/08/27 03:04:21;;;;;;;;;5.00;5.00;;;;;22.35;51.02;101047.63;2106139;27;47336;-49
2022/08/27 03:05:22;;;;;;;;;2.50;2.50;;;;;22.34;50.82;101054.03;2105916;27;47583;-55
2022/08/27 03:06:23;;;;;;;;;4.00;4.00;;;;;22.32;50.70;101055.97;2105645;27;48078;-53
2022/08/27 03:07:23;;;;;;;;;3.50;3.50;;;;;22.29;51.09;101051.63;2097715;28;47377;-53
2022/08/27 03:08:25;;;;;;;;;6.25;4.25;;;;;22.28;50.46;101052.59;2096114;28;47479;-52
2022/08/27 03:09:26;;;;;;;;;3.40;3.40;;;;;22.27;50.81;101052.69;2106707;27;47622;-52
2022/08/27 03:10:26;;;;;;;;;2.00;2.00;;;;;22.25;50.61;101051.94;2106137;27;47439;-52
2022/08/27 03:11:26;;;;;;;;;2.75;2.75;;;;;22.24;50.92;101045.66;2105598;28;47395;-52
2022/08/27 03:12:27;;;;;;;;;2.00;2.00;;;;;22.22;51.00;101042.16;2096909;28;47686;-50
2022/08/27 03:13:27;;;;;;;;;3.50;3.50;;;;;22.21;50.91;101051.25;2097297;28;48334;-49
2022/08/27 03:14:28;;;;;;;;;3.00;3.00;;;;;22.21;50.94;101045.84;2096119;28;45888;-50
2022/08/27 03:15:28;;;;;;;;;3.00;2.00;;;;;22.21;50.83;101051.25;2099262;28;47895;-49
2022/08/27 03:16:28;;;;;;;;;4.00;4.00;;;;;22.21;51.16;101053.09;2112753;27;47561;-50
2022/08/27 03:18:48;;;;;;;;;4.00;3.40;;;;;22.24;51.37;101053.78;2106040;27;47801;-48
2022/08/27 03:19:49;;;;;;;;;2.00;2.00;;;;;22.26;51.43;101045.56;2105139;27;47381;-51
2022/08/27 03:20:52;;;;;;;;;2.20;2.20;;;;;22.26;50.85;101042.84;2087616;28;47278;-51
2022/08/27 03:21:53;;;;;;;;;4.00;3.20;;;;;22.27;51.09;101048.16;2089370;28;47646;-51
2022/08/27 03:22:53;;;;;;;;;2.00;2.00;;;;;22.27;50.66;101041.88;2105421;28;47786;-58
2022/08/27 03:23:54;;;;;;;;;4.00;4.00;;;;;22.26;50.83;101040.16;2097323;28;47405;-52
2022/08/27 03:24:55;;;;;;;;;5.25;3.75;;;;;22.24;51.00;101042.09;2097235;28;47727;-55
2022/08/27 03:25:58;;;;;;;;;3.00;3.00;;;;;22.23;50.93;101038.53;2105576;28;47543;-53
2022/08/27 03:26:58;;;;;;;;;2.00;2.00;;;;;22.23;51.35;101045.72;2111048;27;48337;-50
2022/08/27 03:27:59;;;;;;;;;4.50;3.00;;;;;22.22;51.18;101044.88;2113991;27;47889;-53
2022/08/27 03:28:59;;;;;;;;;2.00;2.00;;;;;22.22;50.95;101052.13;2105447;28;47846;-52
2022/08/27 03:30:03;;;;;;;;;2.75;2.25;;;;;22.23;51.28;101043.03;2106557;27;47860;-52
2022/08/27 03:31:07;;;;;;;;;2.60;2.60;;;;;22.24;50.70;101044.81;2091921;28;45994;-50
2022/08/27 03:32:07;;;;;;;;;2.20;2.20;;;;;22.25;51.03;101042.00;2097800;28;47922;-50
2022/08/27 03:33:07;;;;;;;;;1.00;1.00;;;;;22.25;51.34;101036.59;2096966;28;47707;-54
2022/08/27 03:34:09;;;;;;;;;4.50;3.50;;;;;22.25;50.82;101041.13;2096231;28;47202;-54
2022/08/27 03:35:10;;;;;;;;;4.00;2.80;;;;;22.25;51.50;101044.69;2106203;27;47513;-55
2022/08/27 03:36:11;;;;;;;;;2.60;2.60;;;;;22.23;51.02;101037.63;2106515;27;47536;-54
2022/08/27 03:37:11;;;;;;;;;4.25;3.00;;;;;22.23;50.99;101048.44;2105075;28;47874;-53
2022/08/27 03:38:12;;;;;;;;;3.50;3.50;;;;;22.24;51.54;101047.50;2106220;27;47619;-52
2022/08/27 03:39:12;;;;;;;;;2.75;2.75;;;;;22.23;50.84;101041.22;2105095;27;47300;-55
2022/08/27 03:40:13;;;;;;;;;3.25;3.25;;;;;22.22;51.29;101034.06;2114075;27;47784;-52
2022/08/27 03:41:15;;;;;;;;;4.20;1.80;;;;;22.20;51.45;101041.41;2101356;27;47623;-54
2022/08/27 03:42:15;;;;;;;;;2.20;2.20;;;;;22.21;51.24;101039.56;2105128;28;47655;-56
2022/08/27 03:43:17;;;;;;;;;3.50;3.50;;;;;22.19;51.36;101033.41;2105803;27;47069;-54
2022/08/27 03:44:17;;;;;;;;;2.60;2.60;;;;;22.21;50.93;101031.47;2105853;27;48223;-56
2022/08/27 03:45:18;;;;;;;;;4.75;2.50;;;;;22.22;51.02;101036.75;2105395;28;47567;-53
2022/08/27 03:46:19;;;;;;;;;3.50;3.50;;;;;22.23;51.11;101034.91;2097209;28;47754;-55
2022/08/27 03:47:21;;;;;;;;;3.20;3.20;;;;;22.23;51.48;101029.50;2088540;28;47741;-52
2022/08/27 03:48:21;;;;;;;;;2.40;2.00;;;;;22.25;51.06;101035.72;2104956;27;47664;-56
2022/08/27 03:49:22;;;;;;;;;2.67;2.67;;;;;22.24;51.22;101025.88;2113645;27;47686;-54
2022/08/27 03:50:22;;;;;;;;;2.25;2.25;;;;;22.24;51.25;101031.28;2114070;27;47464;-55
2022/08/27 03:51:23;;;;;;;;;3.00;3.00;;;;;22.24;51.41;101037.56;2113399;27;47498;-57
2022/08/27 03:52:23;;;;;;;;;2.67;2.67;;;;;22.22;50.90;101033.19;2111605;27;47458;-55
2022/08/27 03:53:24;;;;;;;;;2.33;2.33;;;;;22.20;51.18;101035.13;2105127;28;48163;-51
2022/08/27 03:54:25;;;;;;;;;4.50;4.50;;;;;22.18;51.57;101031.66;2105987;27;47822;-54
2022/08/27 03:55:25;;;;;;;;;4.00;4.00;;;;;22.18;51.16;101035.22;2105207;28;47509;-54
2022/08/27 03:56:26;;;;;;;;;4.00;3.00;;;;;22.17;51.08;101035.34;2106436;27;47581;-57
2022/08/27 03:57:26;;;;;;;;;3.00;2.00;;;;;22.17;51.08;101032.63;2106288;27;47331;-53
2022/08/27 03:58:26;;;;;;;;;0.00;0.00;;;;;22.15;51.38;101029.16;2105171;28;47227;-53
2022/08/27 03:59:27;;;;;;;;;2.33;2.00;;;;;22.16;50.97;101029.06;2106408;27;47656;-53
2022/08/27 04:00:27;;;;;;;;;3.25;3.25;;;;;22.15;51.06;101035.44;2104967;28;47312;-52
2022/08/27 04:01:28;;;;;;;;;3.25;3.25;;;;;22.16;51.64;101034.47;2106493;27;47413;-56
2022/08/27 04:02:28;;;;;;;;;2.00;2.00;;;;;22.15;51.41;101029.16;2106259;27;47688;-51
2022/08/27 04:03:29;;;;;;;;;2.33;2.33;;;;;22.14;51.30;101032.84;2095948;28;47485;-51
2022/08/27 04:04:30;;;;;;;;;2.25;2.25;;;;;22.14;50.92;101030.13;2096724;28;47915;-51
2022/08/27 04:05:32;;;;;;;;;3.75;3.75;;;;;22.14;51.34;101035.53;2106463;27;47313;-53
2022/08/27 04:06:34;;;;;;;;;3.00;3.00;;;;;22.12;51.49;101037.47;2113030;27;47921;-53
2022/08/27 04:07:34;;;;;;;;;3.00;2.00;;;;;22.10;51.69;101032.16;2109345;27;48637;-51
2022/08/27 04:08:35;;;;;;;;;3.33;2.00;;;;;22.07;51.63;101029.66;2105299;27;47580;-50
2022/08/27 04:09:35;;;;;;;;;4.50;3.50;;;;;22.06;51.14;101032.47;2105889;27;47306;-50
2022/08/27 04:10:39;;;;;;;;;3.50;3.25;;;;;22.06;51.17;101029.75;2106248;27;47528;-53
2022/08/27 04:11:41;;;;;;;;;4.75;3.00;;;;;22.06;51.26;101030.63;2104955;28;48089;-53
2022/08/27 04:12:43;;;;;;;;;3.40;3.40;;;;;22.06;51.48;101032.47;2105905;27;47855;-53
2022/08/27 04:13:44;;;;;;;;;2.75;2.75;;;;;22.05;51.46;101034.25;2106125;27;47460;-48
2022/08/27 04:14:44;;;;;;;;;3.50;3.50;;;;;22.04;51.39;101032.53;2104600;28;47884;-53
2022/08/27 04:15:46;;;;;;;;;3.25;3.25;;;;;22.04;51.72;101029.81;2109962;27;47701;-52
2022/08/27 04:16:47;;;;;;;;;3.00;3.00;;;;;22.03;51.37;101030.78;2111901;27;48053;-52
2022/08/27 04:17:47;;;;;;;;;2.25;2.00;;;;;22.01;51.38;101032.72;2105149;28;47765;-57
2022/08/27 04:18:48;;;;;;;;;4.00;3.50;;;;;22.00;51.29;101034.56;2105829;27;47708;-53
2022/08/27 04:19:51;;;;;;;;;3.25;3.25;;;;;21.98;51.68;101032.94;2096278;28;47483;-50
2022/08/27 04:20:51;;;;;;;;;3.80;3.20;;;;;21.97;51.86;101032.03;2096931;28;47519;-52
2022/08/27 04:21:52;;;;;;;;;3.75;3.00;;;;;21.96;51.46;101027.59;2106127;27;47850;-54
2022/08/27 04:22:52;;;;;;;;;5.50;5.25;;;;;21.95;51.65;101025.88;2104819;28;48091;-50
2022/08/27 04:23:53;;;;;;;;;2.50;2.50;;;;;21.94;51.79;101031.38;2106017;27;47376;-51
2022/08/27 04:24:54;;;;;;;;;4.50;3.00;;;;;21.91;51.42;101027.03;2105996;27;47506;-55
2022/08/27 04:25:54;;;;;;;;;3.40;3.00;;;;;21.89;51.47;101030.81;2105136;28;47587;-55
2022/08/27 04:26:55;;;;;;;;;3.00;3.00;;;;;21.86;51.96;101031.88;2096272;28;46871;-54
2022/08/27 04:27:55;;;;;;;;;3.25;3.25;;;;;21.84;51.65;101028.38;2095216;28;47629;-52
2022/08/27 04:28:57;;;;;;;;;2.25;2.25;;;;;21.82;51.65;101027.63;2105705;27;47398;-53
2022/08/27 04:29:59;;;;;;;;;4.00;4.00;;;;;21.78;52.13;101027.94;2105979;27;47690;-52
2022/08/27 04:31:02;;;;;;;;;3.60;3.60;;;;;21.75;51.62;101029.00;2092522;28;48085;-53
2022/08/27 04:32:03;;;;;;;;;3.00;3.00;;;;;21.73;51.49;101028.22;2095954;28;47217;-53
2022/08/27 04:33:03;;;;;;;;;2.40;2.40;;;;;21.71;51.85;101027.44;2106264;27;47302;-54
2022/08/27 04:34:06;;;;;;;;;4.25;4.25;;;;;21.68;52.23;101024.94;2104523;28;47921;-53
2022/08/27 04:35:07;;;;;;;;;4.80;3.80;;;;;21.66;51.98;101022.31;2105935;27;47301;-54
2022/08/27 04:36:09;;;;;;;;;5.00;3.25;;;;;21.65;52.01;101027.81;2105915;27;47124;-55
2022/08/27 04:37:09;;;;;;;;;6.60;4.00;;;;;21.63;51.86;101022.53;2105246;28;47498;-51
2022/08/27 04:38:09;;;;;;;;;4.25;4.00;;;;;21.62;51.88;101026.19;2109003;27;47811;-52
2022/08/27 04:39:11;;;;;;;;;3.00;3.00;;;;;21.59;51.91;101022.78;2113110;27;47601;-48
2022/08/27 04:40:12;;;;;;;;;3.80;3.60;;;;;21.58;52.47;101024.63;2105936;27;48232;-53
2022/08/27 04:41:18;;;;;;;;;3.33;3.33;;;;;21.57;52.42;101025.59;2105523;27;47644;-53
2022/08/27 04:42:20;;;;;;;;;4.80;3.20;;;;;21.57;52.04;101024.72;2104675;28;47431;-51
2022/08/27 04:43:20;;;;;;;;;3.50;3.50;;;;;21.56;51.89;101031.09;2105586;27;47466;-52
2022/08/27 04:44:22;;;;;;;;;4.33;3.00;;;;;21.54;52.60;101028.50;2105450;27;47715;-52
2022/08/27 04:45:22;;;;;;;;;3.00;3.00;;;;;21.53;52.55;101026.75;2104585;28;47686;-49
2022/08/27 04:46:25;;;;;;;;;5.00;5.00;;;;;21.52;52.48;101030.44;2105532;27;47977;-51
2022/08/27 04:47:25;;;;;;;;;0.00;0.00;;;;;21.52;52.62;101026.84;2106073;27;47487;-54